Time,TemperatureF,DewpointF,PressureIn,WindDirection,WindDirectionDegrees,WindSpeedMPH,WindSpeedGustMPH,Humidity,HourlyPrecipIn,Conditions,Clouds,dailyrainin,SoftwareType,DateUTC
2013-07-03 00:00:00,74.7,55.9,30.04,SE,134,1.0,1.0,52,0.00,,,0.00,Wunderground v.1.15,2013-07-03 05:00:00,
2013-07-03 00:05:00,74.7,55.9,30.04,SE,134,1.0,2.0,52,0.00,,,0.00,Wunderground v.1.15,2013-07-03 05:05:00,
2013-07-03 00:10:00,74.7,55.4,30.04,SE,134,1.0,1.0,51,0.00,,,0.00,Wunderground v.1.15,2013-07-03 05:10:00,
2013-07-03 00:15:00,74.7,55.4,30.04,SE,135,1.0,1.0,51,0.00,,,0.00,Wunderground v.1.15,2013-07-03 05:15:00,
2013-07-03 00:20:00,74.5,55.2,30.04,SE,134,0.0,0.0,51,0.00,,,0.00,Wunderground v.1.15,2013-07-03 05:20:00,
2013-07-03 00:25:00,74.4,55.6,30.04,SE,134,0.0,0.0,52,0.00,,,0.00,Wunderground v.1.15,2013-07-03 05:25:00,
2013-07-03 00:30:00,74.1,55.3,30.04,ENE,59,1.0,4.0,52,0.00,,,0.00,Wunderground v.1.15,2013-07-03 05:30:00,
2013-07-03 00:50:00,72.6,55.0,30.04,ENE,63,1.0,1.0,54,0.00,,,0.00,Wunderground v.1.15,2013-07-03 05:50:00,
2013-07-03 00:55:00,72.5,54.9,30.04,ENE,63,1.0,1.0,54,0.00,,,0.00,Wunderground v.1.15,2013-07-03 05:55:00,
2013-07-03 01:00:00,72.5,54.4,30.04,ENE,63,1.0,1.0,53,0.00,,,0.00,Wunderground v.1.15,2013-07-03 06:00:00,
2013-07-03 01:10:00,72.5,54.4,30.04,ENE,63,1.0,1.0,53,0.00,,,0.00,Wunderground v.1.15,2013-07-03 06:10:00,
2013-07-03 01:15:00,72.4,54.3,30.04,ENE,63,0.0,1.0,53,0.00,,,0.00,Wunderground v.1.15,2013-07-03 06:15:00,
2013-07-03 01:20:00,72.4,54.3,30.04,ENE,63,1.0,1.0,53,0.00,,,0.00,Wunderground v.1.15,2013-07-03 06:20:00,
2013-07-03 01:25:00,72.4,54.3,30.04,ENE,63,1.0,1.0,53,0.00,,,0.00,Wunderground v.1.15,2013-07-03 06:25:00,
2013-07-03 01:30:00,72.4,54.8,30.04,ENE,63,1.0,1.0,54,0.00,,,0.00,Wunderground v.1.15,2013-07-03 06:30:00,
2013-07-03 01:40:00,72.3,54.7,30.04,ENE,63,1.0,1.0,54,0.00,,,0.00,Wunderground v.1.15,2013-07-03 06:40:00,
2013-07-03 01:45:00,72.4,54.3,30.04,ENE,63,0.0,1.0,53,0.00,,,0.00,Wunderground v.1.15,2013-07-03 06:45:00,
2013-07-03 01:50:00,72.4,54.3,30.04,ENE,63,0.0,0.0,53,0.00,,,0.00,Wunderground v.1.15,2013-07-03 06:50:00,
2013-07-03 01:55:00,72.3,54.7,30.04,ENE,63,0.0,0.0,54,0.00,,,0.00,Wunderground v.1.15,2013-07-03 06:55:00,
2013-07-03 02:05:00,72.1,54.5,30.04,ENE,63,0.0,0.0,54,0.00,,,0.00,Wunderground v.1.15,2013-07-03 07:05:00,
2013-07-03 02:10:00,72.0,54.4,30.04,ENE,63,0.0,1.0,54,0.00,,,0.00,Wunderground v.1.15,2013-07-03 07:10:00,
2013-07-03 02:20:00,71.8,54.3,30.04,ENE,63,1.0,1.0,54,0.00,,,0.00,Wunderground v.1.15,2013-07-03 07:20:00,
2013-07-03 02:30:00,71.8,54.3,30.04,ENE,63,0.0,0.0,54,0.00,,,0.00,Wunderground v.1.15,2013-07-03 07:30:00,
2013-07-03 02:35:00,71.8,54.3,30.04,ENE,63,0.0,0.0,54,0.00,,,0.00,Wunderground v.1.15,2013-07-03 07:35:00,
2013-07-03 02:40:00,71.7,54.2,30.04,ENE,63,0.0,0.0,54,0.00,,,0.00,Wunderground v.1.15,2013-07-03 07:40:00,
2013-07-03 02:45:00,71.7,54.2,30.03,ENE,63,0.0,0.0,54,0.00,,,0.00,Wunderground v.1.15,2013-07-03 07:45:00,
2013-07-03 02:50:00,71.7,54.2,30.03,ENE,63,0.0,0.0,54,0.00,,,0.00,Wunderground v.1.15,2013-07-03 07:50:00,
2013-07-03 02:55:00,71.7,54.2,30.03,ENE,63,0.0,0.0,54,0.00,,,0.00,Wunderground v.1.15,2013-07-03 07:55:00,
2013-07-03 03:00:00,71.8,54.3,30.03,ENE,63,0.0,0.0,54,0.00,,,0.00,Wunderground v.1.15,2013-07-03 08:00:00,
2013-07-03 03:05:00,71.8,54.8,30.03,ENE,63,0.0,0.0,55,0.00,,,0.00,Wunderground v.1.15,2013-07-03 08:05:00,
2013-07-03 03:15:00,71.4,54.9,30.03,ENE,63,0.0,0.0,56,0.00,,,0.00,Wunderground v.1.15,2013-07-03 08:15:00,
2013-07-03 03:20:00,71.3,55.3,30.03,ENE,63,0.0,0.0,57,0.00,,,0.00,Wunderground v.1.15,2013-07-03 08:20:00,
2013-07-03 03:30:00,70.9,55.9,30.03,ENE,63,0.0,0.0,59,0.00,,,0.00,Wunderground v.1.15,2013-07-03 08:30:00,
2013-07-03 03:35:00,70.6,56.5,30.03,ENE,63,0.0,4.0,61,0.00,,,0.00,Wunderground v.1.15,2013-07-03 08:35:00,
2013-07-03 03:45:00,69.5,56.3,30.02,ENE,63,2.0,2.0,63,0.00,,,0.00,Wunderground v.1.15,2013-07-03 08:45:00,
2013-07-03 03:50:00,69.3,56.6,30.03,ENE,63,0.0,0.0,64,0.00,,,0.00,Wunderground v.1.15,2013-07-03 08:50:00,
2013-07-03 03:55:00,69.3,56.6,30.02,ENE,63,0.0,0.0,64,0.00,,,0.00,Wunderground v.1.15,2013-07-03 08:55:00,
2013-07-03 04:00:00,69.4,56.7,30.02,ENE,63,0.0,0.0,64,0.00,,,0.00,Wunderground v.1.15,2013-07-03 09:00:00,
2013-07-03 04:05:00,69.3,56.6,30.02,ENE,63,0.0,0.0,64,0.00,,,0.00,Wunderground v.1.15,2013-07-03 09:05:00,
2013-07-03 04:10:00,69.3,57.0,30.02,ENE,63,0.0,2.0,65,0.00,,,0.00,Wunderground v.1.15,2013-07-03 09:10:00,
2013-07-03 04:30:00,68.6,57.6,30.03,ENE,63,1.0,1.0,68,0.00,,,0.00,Wunderground v.1.15,2013-07-03 09:30:00,
2013-07-03 04:35:00,68.1,57.5,30.03,ENE,63,1.0,1.0,69,0.00,,,0.00,Wunderground v.1.15,2013-07-03 09:35:00,
2013-07-03 04:40:00,67.8,57.7,30.03,ENE,63,1.0,1.0,70,0.00,,,0.00,Wunderground v.1.15,2013-07-03 09:40:00,
2013-07-03 04:45:00,67.6,57.5,30.02,ENE,63,1.0,1.0,70,0.00,,,0.00,Wunderground v.1.15,2013-07-03 09:45:00,
2013-07-03 04:50:00,67.5,57.8,30.02,ENE,63,1.0,1.0,71,0.00,,,0.00,Wunderground v.1.15,2013-07-03 09:50:00,
2013-07-03 04:55:00,67.5,57.8,30.02,ENE,63,1.0,1.0,71,0.00,,,0.00,Wunderground v.1.15,2013-07-03 09:55:00,
2013-07-03 05:05:00,67.4,57.7,30.03,ENE,63,1.0,1.0,71,0.00,,,0.00,Wunderground v.1.15,2013-07-03 10:05:00,
2013-07-03 05:20:00,66.8,57.5,30.03,ENE,63,1.0,1.0,72,0.00,,,0.00,Wunderground v.1.15,2013-07-03 10:20:00,
2013-07-03 05:30:00,66.3,57.8,30.03,NE,48,2.0,2.0,74,0.00,,,0.00,Wunderground v.1.15,2013-07-03 10:30:00,
2013-07-03 05:40:00,66.2,57.7,30.03,NE,49,1.0,2.0,74,0.00,,,0.00,Wunderground v.1.15,2013-07-03 10:40:00,
2013-07-03 05:45:00,66.1,57.6,30.03,ENE,59,2.0,2.0,74,0.00,,,0.00,Wunderground v.1.15,2013-07-03 10:45:00,
2013-07-03 05:55:00,66.0,57.5,30.03,ESE,117,1.0,2.0,74,0.00,,,0.00,Wunderground v.1.15,2013-07-03 10:55:00,
2013-07-03 06:00:00,65.8,57.3,30.03,ESE,115,1.0,1.0,74,0.00,,,0.00,Wunderground v.1.15,2013-07-03 11:00:00,
2013-07-03 06:05:00,65.8,57.7,30.03,ESE,115,1.0,1.0,75,0.00,,,0.00,Wunderground v.1.15,2013-07-03 11:05:00,
2013-07-03 06:10:00,65.7,57.6,30.03,ESE,115,1.0,1.0,75,0.00,,,0.00,Wunderground v.1.15,2013-07-03 11:10:00,
2013-07-03 06:15:00,65.7,57.6,30.03,ESE,115,1.0,1.0,75,0.00,,,0.00,Wunderground v.1.15,2013-07-03 11:15:00,
2013-07-03 06:20:00,65.7,57.2,30.03,ESE,109,1.0,1.0,74,0.00,,,0.00,Wunderground v.1.15,2013-07-03 11:20:00,
2013-07-03 11:10:00,80.5,56.6,30.06,SE,140,2.0,2.0,44,0.00,,,0.00,Wunderground v.1.15,2013-07-03 16:10:00,
2013-07-03 11:20:00,80.7,56.1,30.06,ESE,106,3.0,5.0,43,0.00,,,0.00,Wunderground v.1.15,2013-07-03 16:20:00,
2013-07-03 11:25:00,80.9,55.7,30.05,East,84,3.0,5.0,42,0.00,,,0.00,Wunderground v.1.15,2013-07-03 16:25:00,
2013-07-03 11:30:00,81.4,56.1,30.05,SSW,198,3.0,4.0,42,0.00,,,0.00,Wunderground v.1.15,2013-07-03 16:30:00,
2013-07-03 11:35:00,81.4,56.1,30.05,SSW,208,3.0,4.0,42,0.00,,,0.00,Wunderground v.1.15,2013-07-03 16:35:00,
2013-07-03 11:45:00,81.7,57.7,30.05,SSW,210,3.0,3.0,44,0.00,,,0.00,Wunderground v.1.15,2013-07-03 16:45:00,
2013-07-03 11:50:00,81.8,56.5,30.05,SSW,209,4.0,4.0,42,0.00,,,0.00,Wunderground v.1.15,2013-07-03 16:50:00,
2013-07-03 11:55:00,82.0,56.0,30.05,SW,216,4.0,4.0,41,0.00,,,0.00,Wunderground v.1.15,2013-07-03 16:55:00,
2013-07-03 12:05:00,81.9,57.2,30.05,SW,227,3.0,7.0,43,0.00,,,0.00,Wunderground v.1.15,2013-07-03 17:05:00,
2013-07-03 12:15:00,82.6,56.5,30.04,NNW,327,2.0,3.0,41,0.00,,,0.00,Wunderground v.1.15,2013-07-03 17:15:00,
2013-07-03 12:25:00,83.5,56.6,30.04,SW,226,2.0,3.0,40,0.00,,,0.00,Wunderground v.1.15,2013-07-03 17:25:00,
2013-07-03 12:35:00,84.4,56.7,30.04,NNE,12,1.0,2.0,39,0.00,,,0.00,Wunderground v.1.15,2013-07-03 17:35:00,
2013-07-03 12:50:00,83.8,56.9,30.03,SSW,204,3.0,4.0,40,0.00,,,0.00,Wunderground v.1.15,2013-07-03 17:50:00,
2013-07-03 12:55:00,83.6,56.7,30.03,SW,216,2.0,4.0,40,0.00,,,0.00,Wunderground v.1.15,2013-07-03 17:55:00,
2013-07-03 13:00:00,83.8,55.5,30.03,SW,235,2.0,4.0,38,0.00,,,0.00,Wunderground v.1.15,2013-07-03 18:00:00,
2013-07-03 13:05:00,83.9,55.6,30.03,NW,320,2.0,4.0,38,0.00,,,0.00,Wunderground v.1.15,2013-07-03 18:05:00,
2013-07-03 13:10:00,84.2,55.1,30.03,NE,38,2.0,3.0,37,0.00,,,0.00,Wunderground v.1.15,2013-07-03 18:10:00,
2013-07-03 13:20:00,83.7,55.4,30.02,WSW,240,3.0,3.0,38,0.00,,,0.00,Wunderground v.1.15,2013-07-03 18:20:00,
2013-07-03 13:25:00,83.6,56.0,30.02,WNW,286,3.0,3.0,39,0.00,,,0.00,Wunderground v.1.15,2013-07-03 18:25:00,
2013-07-03 13:40:00,84.0,54.9,30.02,NE,46,3.0,5.0,37,0.00,,,0.00,Wunderground v.1.15,2013-07-03 18:40:00,
2013-07-03 13:45:00,83.4,54.4,30.02,ESE,112,5.0,5.0,37,0.00,,,0.00,Wunderground v.1.15,2013-07-03 18:45:00,
2013-07-03 13:50:00,83.7,55.4,30.02,NE,43,4.0,4.0,38,0.00,,,0.00,Wunderground v.1.15,2013-07-03 18:50:00,
2013-07-03 13:55:00,84.2,54.4,30.02,South,183,2.0,4.0,36,0.00,,,0.00,Wunderground v.1.15,2013-07-03 18:55:00,
2013-07-03 14:10:00,84.9,54.2,30.01,NW,321,1.0,3.0,35,0.00,,,0.00,Wunderground v.1.15,2013-07-03 19:10:00,
2013-07-03 14:15:00,85.2,55.2,30.01,NW,325,2.0,3.0,36,0.00,,,0.00,Wunderground v.1.15,2013-07-03 19:15:00,
2013-07-03 14:25:00,85.1,53.6,30.01,WNW,284,2.0,4.0,34,0.00,,,0.00,Wunderground v.1.15,2013-07-03 19:25:00,
2013-07-03 14:40:00,86.3,54.6,30.00,SSE,163,2.0,4.0,34,0.00,,,0.00,Wunderground v.1.15,2013-07-03 19:40:00,
2013-07-03 14:50:00,84.9,53.4,30.00,ESE,111,5.0,5.0,34,0.00,,,0.00,Wunderground v.1.15,2013-07-03 19:50:00,
2013-07-03 15:00:00,84.8,54.1,30.00,SSW,198,4.0,4.0,35,0.00,,,0.00,Wunderground v.1.15,2013-07-03 20:00:00,
2013-07-03 15:10:00,85.4,53.0,30.00,ENE,74,3.0,5.0,33,0.00,,,0.00,Wunderground v.1.15,2013-07-03 20:10:00,
2013-07-03 15:15:00,85.4,53.8,30.00,ESE,112,4.0,5.0,34,0.00,,,0.00,Wunderground v.1.15,2013-07-03 20:15:00,
2013-07-03 15:20:00,85.8,53.4,29.99,SSE,167,4.0,6.0,33,0.00,,,0.00,Wunderground v.1.15,2013-07-03 20:20:00,
2013-07-03 15:25:00,85.6,53.2,29.99,ESE,121,4.0,6.0,33,0.00,,,0.00,Wunderground v.1.15,2013-07-03 20:25:00,
2013-07-03 15:35:00,85.9,54.3,29.99,WSW,251,4.0,7.0,34,0.00,,,0.00,Wunderground v.1.15,2013-07-03 20:35:00,
2013-07-03 15:45:00,86.6,53.2,29.99,ESE,112,2.0,8.0,32,0.00,,,0.00,Wunderground v.1.15,2013-07-03 20:45:00,
2013-07-03 15:50:00,86.0,52.7,29.99,SSE,153,4.0,5.0,32,0.00,,,0.00,Wunderground v.1.15,2013-07-03 20:50:00,
2013-07-03 16:00:00,85.7,52.4,29.98,ESE,104,4.0,5.0,32,0.00,,,0.00,Wunderground v.1.15,2013-07-03 21:00:00,
2013-07-03 16:10:00,85.9,52.6,29.98,SE,145,4.0,5.0,32,0.00,,,0.00,Wunderground v.1.15,2013-07-03 21:10:00,
2013-07-03 16:15:00,85.4,52.2,29.98,East,93,4.0,5.0,32,0.00,,,0.00,Wunderground v.1.15,2013-07-03 21:15:00,
2013-07-03 16:25:00,84.8,51.7,29.97,SSE,168,4.0,4.0,32,0.00,,,0.00,Wunderground v.1.15,2013-07-03 21:25:00,
2013-07-03 16:30:00,84.8,52.5,29.97,South,181,4.0,4.0,33,0.00,,,0.00,Wunderground v.1.15,2013-07-03 21:30:00,
2013-07-03 16:35:00,85.0,53.5,29.97,SE,127,3.0,4.0,34,0.00,,,0.00,Wunderground v.1.15,2013-07-03 21:35:00,
2013-07-03 16:40:00,85.1,53.6,29.97,SSE,167,3.0,5.0,34,0.00,,,0.00,Wunderground v.1.15,2013-07-03 21:40:00,
2013-07-03 16:45:00,85.2,53.7,29.97,SSE,159,4.0,5.0,34,0.00,,,0.00,Wunderground v.1.15,2013-07-03 21:45:00,
2013-07-03 17:00:00,84.6,53.9,29.97,East,95,4.0,7.0,35,0.00,,,0.00,Wunderground v.1.15,2013-07-03 22:00:00,
2013-07-03 17:10:00,84.6,54.7,29.97,SSE,151,4.0,5.0,36,0.00,,,0.00,Wunderground v.1.15,2013-07-03 22:10:00,
2013-07-03 17:15:00,84.4,54.5,29.97,SE,141,4.0,5.0,36,0.00,,,0.00,Wunderground v.1.15,2013-07-03 22:15:00,
2013-07-03 17:20:00,84.2,53.6,29.97,SE,142,4.0,5.0,35,0.00,,,0.00,Wunderground v.1.15,2013-07-03 22:20:00,
2013-07-03 17:30:00,84.1,53.5,29.96,East,90,4.0,5.0,35,0.00,,,0.00,Wunderground v.1.15,2013-07-03 22:30:00,
2013-07-03 17:35:00,84.3,53.7,29.97,SE,134,4.0,5.0,35,0.00,,,0.00,Wunderground v.1.15,2013-07-03 22:35:00,
2013-07-03 17:45:00,84.0,54.2,29.96,SE,146,4.0,4.0,36,0.00,,,0.00,Wunderground v.1.15,2013-07-03 22:45:00,
2013-07-03 18:00:00,84.1,53.5,29.96,SE,140,3.0,5.0,35,0.00,,,0.00,Wunderground v.1.15,2013-07-03 23:00:00,
2013-07-03 18:05:00,84.3,53.7,29.96,SSE,153,3.0,5.0,35,0.00,,,0.00,Wunderground v.1.15,2013-07-03 23:05:00,
2013-07-03 18:10:00,84.5,53.8,29.95,SE,140,3.0,3.0,35,0.00,,,0.00,Wunderground v.1.15,2013-07-03 23:10:00,
2013-07-03 18:25:00,84.4,53.0,29.94,SE,128,4.0,4.0,34,0.00,,,0.00,Wunderground v.1.15,2013-07-03 23:25:00,
2013-07-03 18:30:00,84.6,53.1,29.94,SE,132,3.0,3.0,34,0.00,,,0.00,Wunderground v.1.15,2013-07-03 23:30:00,
2013-07-03 18:35:00,84.5,53.0,29.94,SE,128,4.0,7.0,34,0.00,,,0.00,Wunderground v.1.15,2013-07-03 23:35:00,
2013-07-03 18:40:00,84.5,53.8,29.94,ESE,107,6.0,6.0,35,0.00,,,0.00,Wunderground v.1.15,2013-07-03 23:40:00,
2013-07-03 18:50:00,84.4,53.0,29.94,SE,127,5.0,6.0,34,0.00,,,0.00,Wunderground v.1.15,2013-07-03 23:50:00,
2013-07-03 19:00:00,83.9,53.3,29.94,SE,125,6.0,8.0,35,0.00,,,0.00,Wunderground v.1.15,2013-07-04 00:00:00,
2013-07-03 19:05:00,83.9,53.3,29.94,SE,132,6.0,9.0,35,0.00,,,0.00,Wunderground v.1.15,2013-07-04 00:05:00,
2013-07-03 19:10:00,83.7,53.1,29.94,SE,137,7.0,7.0,35,0.00,,,0.00,Wunderground v.1.15,2013-07-04 00:10:00,
2013-07-03 19:15:00,83.6,53.8,29.94,SE,138,7.0,7.0,36,0.00,,,0.00,Wunderground v.1.15,2013-07-04 00:15:00,
2013-07-03 19:20:00,83.5,53.7,29.94,SE,138,6.0,6.0,36,0.00,,,0.00,Wunderground v.1.15,2013-07-04 00:20:00,
2013-07-03 19:30:00,83.3,53.6,29.94,SE,138,5.0,5.0,36,0.00,,,0.00,Wunderground v.1.15,2013-07-04 00:30:00,
2013-07-03 19:40:00,82.9,54.0,29.94,SE,129,5.0,5.0,37,0.00,,,0.00,Wunderground v.1.15,2013-07-04 00:40:00,
2013-07-03 19:45:00,82.8,53.9,29.94,SE,139,4.0,5.0,37,0.00,,,0.00,Wunderground v.1.15,2013-07-04 00:45:00,
2013-07-03 19:50:00,82.5,54.3,29.94,SE,130,4.0,4.0,38,0.00,,,0.00,Wunderground v.1.15,2013-07-04 00:50:00,
2013-07-03 19:55:00,82.3,54.2,29.95,SE,130,4.0,4.0,38,0.00,,,0.00,Wunderground v.1.15,2013-07-04 00:55:00,
2013-07-03 20:00:00,82.1,54.7,29.94,SE,126,4.0,4.0,39,0.00,,,0.00,Wunderground v.1.15,2013-07-04 01:00:00,
2013-07-03 20:05:00,81.9,54.5,29.95,SE,144,4.0,4.0,39,0.00,,,0.00,Wunderground v.1.15,2013-07-04 01:05:00,
2013-07-03 20:10:00,81.6,54.2,29.94,SE,143,4.0,4.0,39,0.00,,,0.00,Wunderground v.1.15,2013-07-04 01:10:00,
2013-07-03 20:30:00,80.7,54.1,29.94,SE,140,4.0,4.0,40,0.00,,,0.00,Wunderground v.1.15,2013-07-04 01:30:00,
2013-07-03 20:35:00,80.5,54.0,29.94,SE,139,3.0,4.0,40,0.00,,,0.00,Wunderground v.1.15,2013-07-04 01:35:00,
2013-07-03 20:40:00,80.3,54.5,29.94,SE,139,2.0,2.0,41,0.00,,,0.00,Wunderground v.1.15,2013-07-04 01:40:00,
2013-07-03 20:45:00,80.2,55.7,29.94,SE,134,2.0,2.0,43,0.00,,,0.00,Wunderground v.1.15,2013-07-04 01:45:00,
2013-07-03 20:50:00,80.0,54.8,29.94,SE,130,2.0,2.0,42,0.00,,,0.00,Wunderground v.1.15,2013-07-04 01:50:00,
2013-07-03 20:55:00,79.8,55.3,29.94,ESE,123,2.0,2.0,43,0.00,,,0.00,Wunderground v.1.15,2013-07-04 01:55:00,
2013-07-03 21:05:00,79.3,54.9,29.94,ESE,123,2.0,5.0,43,0.00,,,0.00,Wunderground v.1.15,2013-07-04 02:05:00,
2013-07-03 21:10:00,79.1,55.3,29.94,ESE,112,2.0,4.0,44,0.00,,,0.00,Wunderground v.1.15,2013-07-04 02:10:00,
2013-07-03 21:15:00,78.8,55.0,29.94,ESE,119,3.0,4.0,44,0.00,,,0.00,Wunderground v.1.15,2013-07-04 02:15:00,
2013-07-03 21:20:00,78.5,55.4,29.94,ESE,119,2.0,4.0,45,0.00,,,0.00,Wunderground v.1.15,2013-07-04 02:20:00,
2013-07-03 21:25:00,78.0,55.5,29.95,SE,138,2.0,4.0,46,0.00,,,0.00,Wunderground v.1.15,2013-07-04 02:25:00,
2013-07-03 21:30:00,77.5,55.7,29.95,SE,128,3.0,3.0,47,0.00,,,0.00,Wunderground v.1.15,2013-07-04 02:30:00,
2013-07-03 21:40:00,76.9,55.7,29.95,ESE,121,2.0,2.0,48,0.00,,,0.00,Wunderground v.1.15,2013-07-04 02:40:00,
2013-07-03 21:45:00,76.8,56.2,29.95,ESE,119,2.0,2.0,49,0.00,,,0.00,Wunderground v.1.15,2013-07-04 02:45:00,
2013-07-03 21:50:00,76.7,56.1,29.96,ESE,104,2.0,2.0,49,0.00,,,0.00,Wunderground v.1.15,2013-07-04 02:50:00,
2013-07-03 21:55:00,76.6,56.0,29.96,ESE,104,3.0,3.0,49,0.00,,,0.00,Wunderground v.1.15,2013-07-04 02:55:00,
2013-07-03 22:00:00,76.5,55.9,29.96,ESE,103,2.0,3.0,49,0.00,,,0.00,Wunderground v.1.15,2013-07-04 03:00:00,
2013-07-03 22:15:00,76.2,55.6,29.97,ESE,113,2.0,3.0,49,0.00,,,0.00,Wunderground v.1.15,2013-07-04 03:15:00,
2013-07-03 22:20:00,76.1,56.1,29.96,ESE,115,2.0,2.0,50,0.00,,,0.00,Wunderground v.1.15,2013-07-04 03:20:00,
2013-07-03 22:25:00,75.9,55.9,29.97,ESE,121,2.0,2.0,50,0.00,,,0.00,Wunderground v.1.15,2013-07-04 03:25:00,
2013-07-03 22:35:00,75.7,55.7,29.97,ESE,117,2.0,3.0,50,0.00,,,0.00,Wunderground v.1.15,2013-07-04 03:35:00,
2013-07-03 22:40:00,75.6,56.2,29.97,ESE,117,2.0,2.0,51,0.00,,,0.00,Wunderground v.1.15,2013-07-04 03:40:00,
2013-07-03 22:50:00,75.4,56.0,29.97,ESE,114,2.0,2.0,51,0.00,,,0.00,Wunderground v.1.15,2013-07-04 03:50:00,
2013-07-03 22:55:00,75.5,56.1,29.97,ESE,115,2.0,2.0,51,0.00,,,0.00,Wunderground v.1.15,2013-07-04 03:55:00,
2013-07-03 23:00:00,75.4,56.0,29.97,ESE,119,2.0,2.0,51,0.00,,,0.00,Wunderground v.1.15,2013-07-04 04:00:00,
2013-07-03 23:05:00,75.4,56.0,29.97,SE,131,2.0,3.0,51,0.00,,,0.00,Wunderground v.1.15,2013-07-04 04:05:00,
2013-07-03 23:10:00,75.2,56.4,29.97,SSE,150,3.0,3.0,52,0.00,,,0.00,Wunderground v.1.15,2013-07-04 04:10:00,
2013-07-03 23:15:00,74.9,56.1,29.97,SE,126,3.0,3.0,52,0.00,,,0.00,Wunderground v.1.15,2013-07-04 04:15:00,
2013-07-03 23:20:00,74.8,56.5,29.98,ESE,121,3.0,4.0,53,0.00,,,0.00,Wunderground v.1.15,2013-07-04 04:20:00,
2013-07-03 23:25:00,74.8,56.5,29.98,ESE,121,2.0,4.0,53,0.00,,,0.00,Wunderground v.1.15,2013-07-04 04:25:00,
2013-07-03 23:35:00,74.6,56.3,29.98,SE,129,2.0,4.0,53,0.00,,,0.00,Wunderground v.1.15,2013-07-04 04:35:00,
2013-07-03 23:45:00,74.4,56.7,29.98,ESE,115,3.0,3.0,54,0.00,,,0.00,Wunderground v.1.15,2013-07-04 04:45:00,
2013-07-03 23:50:00,74.3,56.6,29.98,SE,128,3.0,3.0,54,0.00,,,0.00,Wunderground v.1.15,2013-07-04 04:50:00,
2013-07-03 23:55:00,74.1,56.4,29.98,SE,135,3.0,3.0,54,0.00,,,0.00,Wunderground v.1.15,2013-07-04 04:55:00,